Time;durP1;ratioP1;P1;durP2;ratioP2;P2;SDS_P1;SDS_P2;PMS_P1;PMS_P2;Temp;Humidity;BMP_temperature;BMP_pressure;BME280_temperature;BME280_humidity;BME280_pressure;Samples;Min_cycle;Max_cycle;Signal;HPM_P1;HPM_P2
2022/08/07 00:00:30;;;;;;;;;;;;;;;28.74;38.30;94634.53;5055693;28;7237;-62
2022/08/07 00:03:05;;;;;;;;;;;;;;;28.74;38.80;94637.28;5073794;28;9389;-63
2022/08/07 00:05:32;;;;;;;;;;;;;;;28.74;38.95;94638.03;5048871;28;7290;-63
2022/08/07 00:07:58;;;;;;;;;;;;;;;28.74;38.98;94631.75;5070588;28;7234;-63
2022/08/07 00:10:24;;;;;;;;;;;;;;;28.72;38.43;94631.53;5067720;28;9115;-63
2022/08/07 00:12:51;;;;;;;;;;;;;;;28.70;38.76;94620.25;5049621;28;7572;-63
2022/08/07 00:15:17;;;;;;;;;;;;;;;28.72;38.82;94626.75;5067294;28;7236;-62
2022/08/07 00:17:45;;;;;;;;;;;;;;;28.72;38.87;94620.47;5068832;28;7896;-62
2022/08/07 00:20:11;;;;;;;;;;;;;;;28.74;38.87;94617.91;5032326;28;6971;-62
2022/08/07 00:22:53;;;;;;;;;;;;;;;28.71;39.08;94608.63;5072398;28;9109;-63
2022/08/07 00:25:29;;;;;;;;;;;;;;;28.70;38.83;94604.38;5072155;28;7274;-63
2022/08/07 00:28:07;;;;;;;;;;;;;;;28.71;38.89;94597.56;5069998;28;7248;-62
2022/08/07 00:30:33;;;;;;;;;;;;;;;28.70;38.56;94600.88;5052971;28;7191;-62
2022/08/07 00:33:02;;;;;;;;;;;;;;;28.68;38.34;94601.41;5070420;28;7160;-62
2022/08/07 00:35:30;;;;;;;;;;;;;;;28.68;38.65;94593.09;5050778;28;9035;-62
2022/08/07 00:38:06;;;;;;;;;;;;;;;28.68;38.79;94595.09;5073192;28;7190;-62
2022/08/07 00:40:49;;;;;;;;;;;;;;;28.68;38.45;94595.09;5070526;28;7615;-62
2022/08/07 00:43:17;;;;;;;;;;;;;;;28.65;38.87;94585.84;5053499;28;7144;-62
2022/08/07 00:45:55;;;;;;;;;;;;;;;28.67;38.80;94591.59;5048973;28;7180;-62
2022/08/07 00:48:22;;;;;;;;;;;;;;;28.68;38.93;94586.81;5052682;28;9497;-63
2022/08/07 00:50:50;;;;;;;;;;;;;;;28.67;38.77;94585.31;5051986;28;7289;-63
2022/08/07 00:53:22;;;;;;;;;;;;;;;28.67;39.27;94588.06;5054222;28;9453;-62
2022/08/07 00:55:57;;;;;;;;;;;;;;;28.67;39.21;94577.75;5049328;28;7248;-62
2022/08/07 00:58:24;;;;;;;;;;;;;;;28.66;39.32;94573.50;5073224;28;7077;-62
2022/08/07 01:00:50;;;;;;;;;;;;;;;28.64;39.01;94570.53;5069876;28;7282;-62
2022/08/07 01:03:22;;;;;;;;;;;;;;;28.66;38.89;94561.69;5073028;28;8757;-62
2022/08/07 01:06:00;;;;;;;;;;;;;;;28.64;38.71;94559.44;5054020;28;7012;-62
2022/08/07 01:08:30;;;;;;;;;;;;;;;28.64;38.74;94556.69;5052202;28;7286;-62
2022/08/07 01:10:56;;;;;;;;;;;;;;;28.63;38.81;94557.94;5068199;28;7650;-62
2022/08/07 01:13:22;;;;;;;;;;;;;;;28.63;38.58;94549.63;5049751;28;9055;-62
2022/08/07 01:15:51;;;;;;;;;;;;;;;28.64;39.18;94553.16;5066878;28;7837;-62
2022/08/07 01:18:17;;;;;;;;;;;;;;;28.63;38.98;94537.81;5041072;28;7239;-63
2022/08/07 01:21:16;;;;;;;;;;;;;;;28.63;38.87;94543.34;5049282;28;9329;-63
2022/08/07 01:24:04;;;;;;;;;;;;;;;28.63;38.89;94538.56;5067521;28;7128;-62
2022/08/07 01:26:42;;;;;;;;;;;;;;;28.63;38.79;94540.56;5053300;28;9294;-62
2022/08/07 01:29:09;;;;;;;;;;;;;;;28.62;39.20;94539.09;5070672;28;7172;-62
2022/08/07 01:31:37;;;;;;;;;;;;;;;28.62;39.19;94537.09;5050979;28;7472;-62
2022/08/07 01:34:04;;;;;;;;;;;;;;;28.61;39.03;94543.13;5049973;28;7838;-63
2022/08/07 01:36:33;;;;;;;;;;;;;;;28.60;38.91;94538.88;5066772;28;7028;-63
2022/08/07 01:39:02;;;;;;;;;;;;;;;28.60;39.35;94541.66;5066459;28;7003;-62
2022/08/07 01:41:29;;;;;;;;;;;;;;;28.56;39.09;94539.16;5065672;28;8628;-62
2022/08/07 01:43:55;;;;;;;;;;;;;;;28.58;39.14;94539.41;5041959;28;8720;-63
2022/08/07 01:46:21;;;;;;;;;;;;;;;28.59;39.05;94542.91;5057568;28;6863;-62
2022/08/07 01:48:48;;;;;;;;;;;;;;;28.56;38.55;94536.38;5064568;28;7235;-63
2022/08/07 01:51:21;;;;;;;;;;;;;;;28.56;39.08;94536.38;5066764;28;9175;-63
2022/08/07 01:54:21;;;;;;;;;;;;;;;28.57;38.81;94537.13;5052927;28;8708;-63
2022/08/07 01:56:53;;;;;;;;;;;;;;;28.55;39.10;94532.13;4929275;28;9278;-63
2022/08/07 01:59:34;;;;;;;;;;;;;;;28.55;38.69;94537.66;4947430;28;6875;-62
2022/08/07 02:02:26;;;;;;;;;;;;;;;28.53;39.07;94548.50;4946286;28;6992;-62
2022/08/07 02:05:26;;;;;;;;;;;;;;;28.54;38.87;94544.47;4961896;28;7341;-63
2022/08/07 02:08:26;;;;;;;;;;;;;;;28.53;38.84;94545.00;4963783;28;9055;-62
2022/08/07 02:10:58;;;;;;;;;;;;;;;28.53;38.91;94547.75;4912583;29;6994;-62
2022/08/07 02:13:27;;;;;;;;;;;;;;;28.52;38.56;94544.25;4897565;29;7319;-62
2022/08/07 02:16:23;;;;;;;;;;;;;;;28.53;38.93;94558.84;4896281;29;7014;-62
2022/08/07 02:18:54;;;;;;;;;;;;;;;28.51;39.05;94556.59;4912251;29;7685;-63
2022/08/07 02:21:23;;;;;;;;;;;;;;;28.48;39.09;94541.03;4888783;29;7253;-62
2022/08/07 02:24:21;;;;;;;;;;;;;;;28.49;39.06;94555.63;4912886;29;7022;-62
2022/08/07 02:26:50;;;;;;;;;;;;;;;28.49;38.61;94550.09;4893107;29;8098;-63
2022/08/07 02:29:37;;;;;;;;;;;;;;;28.47;39.22;94539.53;4891415;29;8012;-62
2022/08/07 02:32:06;;;;;;;;;;;;;;;28.47;38.75;94536.75;4896582;29;7758;-63
2022/08/07 02:34:34;;;;;;;;;;;;;;;28.44;38.88;94535.06;4914158;29;7192;-62
2022/08/07 02:37:04;;;;;;;;;;;;;;;28.45;38.98;94542.09;4911843;29;9899;-62
2022/08/07 02:39:33;;;;;;;;;;;;;;;28.44;38.89;94524.00;4912090;29;7090;-63
2022/08/07 02:42:02;;;;;;;;;;;;;;;28.45;39.15;94535.81;4906275;29;7102;-63
2022/08/07 02:44:30;;;;;;;;;;;;;;;28.42;39.54;94526.56;4920333;29;7043;-63
2022/08/07 02:47:00;;;;;;;;;;;;;;;28.44;39.01;94526.00;4972055;28;7463;-62
2022/08/07 02:49:37;;;;;;;;;;;;;;;28.44;39.01;94523.25;5016472;28;8707;-63
2022/08/07 02:52:24;;;;;;;;;;;;;;;28.41;39.08;94519.50;5017589;28;7238;-62
2022/08/07 02:55:06;;;;;;;;;;;;;;;28.43;39.01;94521.78;5004720;28;9426;-63
2022/08/07 02:57:45;;;;;;;;;;;;;;;28.43;39.07;94511.44;5011619;28;6995;-63
2022/08/07 03:00:13;;;;;;;;;;;;;;;28.43;38.43;94513.47;5015962;28;7890;-62
2022/08/07 03:02:46;;;;;;;;;;;;;;;28.42;39.17;94509.94;5024296;28;7778;-62
2022/08/07 03:05:18;;;;;;;;;;;;;;;28.41;39.13;94507.69;5047176;28;7302;-62
2022/08/07 03:07:47;;;;;;;;;;;;;;;28.40;38.86;94509.72;5065397;28;8800;-63
2022/08/07 03:10:23;;;;;;;;;;;;;;;28.41;39.13;94507.69;5068859;28;7229;-62
2022/08/07 03:13:17;;;;;;;;;;;;;;;28.40;39.10;94506.97;5070140;28;9219;-62
2022/08/07 03:15:45;;;;;;;;;;;;;;;28.39;39.33;94508.22;4959521;28;9593;-62
2022/08/07 03:18:21;;;;;;;;;;;;;;;28.38;39.62;94504.69;4960011;28;7224;-62
2022/08/07 03:20:48;;;;;;;;;;;;;;;28.37;39.51;94505.25;4954606;28;7025;-62
2022/08/07 03:23:17;;;;;;;;;;;;;;;28.36;38.91;94506.53;4964117;28;7151;-63
2022/08/07 03:26:04;;;;;;;;;;;;;;;28.35;39.51;94505.03;4962505;28;8963;-63
2022/08/07 03:28:34;;;;;;;;;;;;;;;28.36;39.18;94506.53;4969997;28;7393;-63
2022/08/07 03:31:18;;;;;;;;;;;;;;;28.34;39.41;94511.81;4948872;28;7264;-63
2022/08/07 03:33:49;;;;;;;;;;;;;;;28.36;39.60;94514.81;4946102;28;7043;-63
2022/08/07 03:36:17;;;;;;;;;;;;;;;28.34;39.33;94509.06;4960995;28;8823;-63
2022/08/07 03:39:03;;;;;;;;;;;;;;;28.35;38.95;94516.09;4963487;28;9794;-63
2022/08/07 03:41:47;;;;;;;;;;;;;;;28.33;38.97;94515.88;4966782;28;9044;-63
2022/08/07 03:44:14;;;;;;;;;;;;;;;28.32;39.29;94511.59;4953739;28;7271;-63
2022/08/07 03:46:42;;;;;;;;;;;;;;;28.32;39.19;94509.59;4953342;28;7222;-63
2022/08/07 03:49:11;;;;;;;;;;;;;;;28.32;39.29;94509.59;4960104;28;9325;-63
2022/08/07 03:51:41;;;;;;;;;;;;;;;28.31;39.36;94510.13;4964311;28;8921;-63
2022/08/07 03:54:09;;;;;;;;;;;;;;;28.28;39.42;94511.91;5052703;28;9148;-63
2022/08/07 03:56:39;;;;;;;;;;;;;;;28.26;39.19;94508.19;5050845;28;8871;-63
2022/08/07 03:59:13;;;;;;;;;;;;;;;28.28;39.14;94511.91;5049093;28;7253;-63
2022/08/07 04:01:52;;;;;;;;;;;;;;;28.29;39.09;94509.91;5048977;28;7081;-62
2022/08/07 04:04:33;;;;;;;;;;;;;;;28.28;39.14;94509.16;5069379;28;7024;-62
2022/08/07 04:07:06;;;;;;;;;;;;;;;28.28;39.39;94511.91;5047024;28;8669;-62
2022/08/07 04:09:35;;;;;;;;;;;;;;;28.27;39.30;94520.75;5045639;28;7184;-63
2022/08/07 04:12:01;;;;;;;;;;;;;;;28.27;39.18;94515.22;5068233;28;7482;-63
2022/08/07 04:14:32;;;;;;;;;;;;;;;28.25;39.16;94524.00;5068467;28;7974;-63
2022/08/07 04:16:58;;;;;;;;;;;;;;;28.25;38.91;94515.72;5069096;28;7018;-63
2022/08/07 04:19:26;;;;;;;;;;;;;;;28.27;39.33;94529.03;5044248;28;7062;-62
2022/08/07 04:21:53;;;;;;;;;;;;;;;28.25;38.93;94529.53;5045454;28;7132;-63
2022/08/07 04:24:34;;;;;;;;;;;;;;;28.24;39.15;94528.06;5071571;28;8168;-63
2022/08/07 04:27:10;;;;;;;;;;;;;;;28.25;39.53;94534.34;5071180;28;9242;-63
2022/08/07 04:30:06;;;;;;;;;;;;;;;28.24;38.95;94532.84;5056069;28;6987;-63
2022/08/07 04:32:33;;;;;;;;;;;;;;;28.23;38.83;94536.91;4949302;28;9376;-63
2022/08/07 04:35:02;;;;;;;;;;;;;;;28.22;39.16;94535.41;4944712;28;7377;-63
2022/08/07 04:37:30;;;;;;;;;;;;;;;28.22;38.93;94533.38;4952789;28;7244;-63
2022/08/07 04:39:56;;;;;;;;;;;;;;;28.21;38.53;94537.41;4928335;28;7223;-63
2022/08/07 04:42:41;;;;;;;;;;;;;;;28.19;38.88;94537.19;4940406;28;8735;-63
2022/08/07 04:45:10;;;;;;;;;;;;;;;28.20;38.95;94544.22;4951045;28;9085;-62
2022/08/07 04:48:09;;;;;;;;;;;;;;;28.19;39.06;94544.72;4943951;28;9231;-63
2022/08/07 04:51:09;;;;;;;;;;;;;;;28.20;38.96;94543.47;4932701;28;7269;-63
2022/08/07 04:53:59;;;;;;;;;;;;;;;28.19;38.98;94548.25;4933386;28;9168;-63
2022/08/07 04:56:46;;;;;;;;;;;;;;;28.18;39.03;94546.78;4949725;28;7225;-63
2022/08/07 04:59:41;;;;;;;;;;;;;;;28.18;39.43;94549.53;4926576;28;6925;-63
2022/08/07 05:02:29;;;;;;;;;;;;;;;28.17;38.92;94545.25;4952031;28;8846;-63
2022/08/07 05:05:29;;;;;;;;;;;;;;;28.17;38.88;94550.03;4944188;28;7248;-63
2022/08/07 05:08:05;;;;;;;;;;;;;;;28.14;38.96;94546.31;4945573;28;7307;-63
2022/08/07 05:10:31;;;;;;;;;;;;;;;28.15;39.12;94547.81;5047090;28;9142;-63
2022/08/07 05:13:08;;;;;;;;;;;;;;;28.14;38.38;94553.88;5054567;28;7177;-62
2022/08/07 05:15:42;;;;;;;;;;;;;;;28.13;39.00;94557.91;5049582;28;7052;-63
2022/08/07 05:18:33;;;;;;;;;;;;;;;28.12;39.10;94554.38;5049043;28;7258;-63
2022/08/07 05:21:24;;;;;;;;;;;;;;;28.13;38.77;94555.88;5052401;28;9002;-62
2022/08/07 05:24:10;;;;;;;;;;;;;;;28.12;38.79;94554.38;5066553;28;7223;-63
2022/08/07 05:26:40;;;;;;;;;;;;;;;28.11;38.99;94558.44;5071859;28;9073;-63
2022/08/07 05:29:26;;;;;;;;;;;;;;;28.11;38.57;94555.66;5072063;28;7062;-62
2022/08/07 05:31:55;;;;;;;;;;;;;;;28.10;38.80;94558.97;5052617;28;7014;-63
2022/08/07 05:34:23;;;;;;;;;;;;;;;28.10;39.31;94567.25;5053245;28;7413;-63
2022/08/07 05:36:51;;;;;;;;;;;;;;;28.08;39.24;94564.25;5050347;28;7289;-62
2022/08/07 05:39:20;;;;;;;;;;;;;;;28.08;38.95;94567.75;5066883;28;7362;-63
2022/08/07 05:41:48;;;;;;;;;;;;;;;28.10;38.92;94572.78;5044827;28;7507;-63
2022/08/07 05:44:20;;;;;;;;;;;;;;;28.09;39.05;94565.75;5067133;28;7010;-62
2022/08/07 05:46:50;;;;;;;;;;;;;;;28.09;38.89;94571.28;5066258;28;7003;-62
2022/08/07 05:49:17;;;;;;;;;;;;;;;28.08;38.96;94575.31;5041805;28;9490;-62
2022/08/07 05:51:44;;;;;;;;;;;;;;;28.08;39.09;94572.53;5065661;28;7020;-62
2022/08/07 05:54:12;;;;;;;;;;;;;;;28.08;38.88;94581.59;5047952;28;9449;-62
2022/08/07 05:56:47;;;;;;;;;;;;;;;28.08;39.02;94569.78;5063924;28;9244;-63
2022/08/07 05:59:21;;;;;;;;;;;;;;;28.08;39.04;94580.84;5041088;28;6990;-63
2022/08/07 06:01:49;;;;;;;;;;;;;;;28.06;39.15;94577.84;5050374;28;7242;-63
2022/08/07 06:04:19;;;;;;;;;;;;;;;28.06;39.31;94575.06;5044963;28;8689;-63
2022/08/07 06:06:45;;;;;;;;;;;;;;;28.04;39.35;94578.38;5064196;28;7240;-62
2022/08/07 06:09:17;;;;;;;;;;;;;;;28.04;39.46;94570.06;5045406;28;9190;-62
2022/08/07 06:11:44;;;;;;;;;;;;;;;28.05;39.53;94570.84;5064493;28;8030;-62
2022/08/07 06:14:11;;;;;;;;;;;;;;;28.06;39.29;94575.84;5047236;28;7240;-63
2022/08/07 06:16:38;;;;;;;;;;;;;;;28.07;39.38;94573.81;5046787;28;9240;-63
2022/08/07 06:19:05;;;;;;;;;;;;;;;28.07;39.29;94582.13;5041272;28;6935;-62
2022/08/07 06:21:35;;;;;;;;;;;;;;;28.07;39.38;94571.06;5038919;28;8973;-63
2022/08/07 06:24:05;;;;;;;;;;;;;;;28.08;39.55;94570.53;5047885;28;7238;-63
2022/08/07 06:26:37;;;;;;;;;;;;;;;28.08;39.33;94578.81;5065540;28;6860;-63
2022/08/07 06:29:04;;;;;;;;;;;;;;;28.09;39.74;94574.03;5066873;28;8242;-63
2022/08/07 06:31:30;;;;;;;;;;;;;;;28.07;39.37;94584.88;5063862;28;7497;-63
2022/08/07 06:33:56;;;;;;;;;;;;;;;28.08;39.56;94578.81;5061699;28;9155;-63
2022/08/07 06:36:25;;;;;;;;;;;;;;;28.08;39.70;94580.84;5040245;28;9034;-62
2022/08/07 06:38:52;;;;;;;;;;;;;;;28.08;39.25;94576.06;5046257;28;7060;-63
2022/08/07 06:41:34;;;;;;;;;;;;;;;28.08;39.78;94576.06;5044183;28;9113;-63
2022/08/07 06:44:05;;;;;;;;;;;;;;;28.07;39.72;94571.81;5045009;28;7112;-63
2022/08/07 06:46:32;;;;;;;;;;;;;;;28.10;39.72;94584.56;5064656;28;6984;-63
2022/08/07 06:49:27;;;;;;;;;;;;;;;28.10;39.89;94583.84;5068962;28;7507;-62
2022/08/07 06:51:57;;;;;;;;;;;;;;;28.12;39.89;94576.50;4968097;28;7279;-62
2022/08/07 06:54:25;;;;;;;;;;;;;;;28.13;39.81;94577.25;4952601;28;7192;-63
2022/08/07 06:57:10;;;;;;;;;;;;;;;28.13;39.86;94569.72;4969453;28;7459;-63
2022/08/07 06:59:47;;;;;;;;;;;;;;;28.12;40.07;94576.50;4969166;28;7168;-63
2022/08/07 07:02:25;;;;;;;;;;;;;;;28.12;40.01;94570.97;4946916;28;9122;-62
2022/08/07 07:04:56;;;;;;;;;;;;;;;28.12;40.17;94570.97;4969352;28;9211;-62
2022/08/07 07:07:29;;;;;;;;;;;;;;;28.14;39.98;94567.69;4968059;28;7062;-63
2022/08/07 07:09:54;;;;;;;;;;;;;;;28.13;40.16;94575.25;4965587;28;7340;-63
2022/08/07 07:12:45;;;;;;;;;;;;;;;28.14;40.96;94570.47;4962685;28;7065;-62
2022/08/07 07:15:29;;;;;;;;;;;;;;;28.15;40.53;94580.25;4958079;28;7227;-61
2022/08/07 07:18:20;;;;;;;;;;;;;;;28.15;41.06;94571.94;4964202;28;6989;-61
2022/08/07 07:20:54;;;;;;;;;;;;;;;28.15;41.00;94569.19;4956543;28;7519;-62
2022/08/07 07:23:25;;;;;;;;;;;;;;;28.18;40.36;94573.69;4948138;28;7180;-62
2022/08/07 07:25:58;;;;;;;;;;;;;;;28.16;40.21;94567.91;4948635;28;7260;-62
2022/08/07 07:28:50;;;;;;;;;;;;;;;28.16;40.29;94576.97;5002427;28;9091;-61
2022/08/07 07:31:42;;;;;;;;;;;;;;;28.18;40.04;94573.69;5049915;28;7230;-62
2022/08/07 07:34:17;;;;;;;;;;;;;;;28.16;40.00;94570.69;5047825;28;9084;-62
2022/08/07 07:36:48;;;;;;;;;;;;;;;28.16;40.08;94565.16;5048328;28;9127;-62
2022/08/07 07:39:19;;;;;;;;;;;;;;;28.15;40.55;94567.16;5065739;28;9174;-62
2022/08/07 07:41:53;;;;;;;;;;;;;;;28.16;40.33;94567.91;5049136;28;6929;-62
2022/08/07 07:44:32;;;;;;;;;;;;;;;28.17;40.15;94569.41;5069055;28;7041;-62
2022/08/07 07:47:10;;;;;;;;;;;;;;;28.14;40.51;94562.16;5068836;28;8174;-62
2022/08/07 07:49:55;;;;;;;;;;;;;;;28.09;40.56;94566.50;5045642;28;9178;-63
2022/08/07 07:52:24;;;;;;;;;;;;;;;28.06;40.50;94573.06;5051946;28;7008;-63
2022/08/07 07:54:55;;;;;;;;;;;;;;;28.09;40.64;94565.75;5068305;28;7099;-62
2022/08/07 07:57:34;;;;;;;;;;;;;;;28.11;40.70;94566.72;5050559;28;7236;-62
2022/08/07 08:00:27;;;;;;;;;;;;;;;28.15;40.53;94574.72;5070631;28;7293;-62
2022/08/07 08:03:06;;;;;;;;;;;;;;;28.14;40.46;94573.22;5053190;28;7293;-61
2022/08/07 08:05:36;;;;;;;;;;;;;;;28.16;40.78;94570.69;5065562;28;7402;-62
2022/08/07 08:08:04;;;;;;;;;;;;;;;28.15;40.60;94571.94;5047707;28;9636;-62
2022/08/07 08:10:36;;;;;;;;;;;;;;;28.12;40.23;94570.25;5054949;28;7125;-61
2022/08/07 08:13:06;;;;;;;;;;;;;;;28.14;40.24;94570.47;5048465;28;7283;-62
2022/08/07 08:15:37;;;;;;;;;;;;;;;28.17;40.43;94578.44;5048723;28;9342;-61
2022/08/07 08:18:42;;;;;;;;;;;;;;;28.18;40.38;94570.91;5052687;28;7154;-61
2022/08/07 08:27:08;;;;;;;;;;;;;;;28.20;40.17;94568.38;5004333;28;7905;-61
2022/08/07 08:29:45;;;;;;;;;;;;;;;28.19;40.44;94575.91;4988974;28;7002;-61
2022/08/07 08:32:17;;;;;;;;;;;;;;;28.20;40.46;94576.66;4988547;28;9134;-61
2022/08/07 08:34:47;;;;;;;;;;;;;;;28.22;40.48;94582.41;4990100;28;7114;-61
2022/08/07 08:37:18;;;;;;;;;;;;;;;28.21;40.51;94587.19;4981170;28;7320;-61
2022/08/07 08:39:47;;;;;;;;;;;;;;;28.22;40.01;94587.94;4999113;28;7008;-61
2022/08/07 08:42:44;;;;;;;;;;;;;;;28.20;40.37;94579.44;5006444;28;7068;-61
2022/08/07 08:45:24;;;;;;;;;;;;;;;28.22;40.39;94585.19;4930815;28;9146;-61
2022/08/07 08:48:07;;;;;;;;;;;;;;;28.21;40.06;94581.66;4915620;29;7278;-60
2022/08/07 08:51:09;;;;;;;;;;;;;;;28.23;40.38;94586.69;4931008;28;7243;-61
2022/08/07 08:54:05;;;;;;;;;;;;;;;28.23;39.98;94583.91;4916699;29;7280;-61
2022/08/07 08:56:52;;;;;;;;;;;;;;;28.23;40.39;94594.97;4930090;28;7022;-61
2022/08/07 08:59:39;;;;;;;;;;;;;;;28.22;40.38;94594.22;4928033;28;7183;-61
2022/08/07 09:02:32;;;;;;;;;;;;;;;28.21;40.36;94592.72;4930440;28;7341;-61
2022/08/07 09:05:12;;;;;;;;;;;;;;;28.21;40.60;94589.97;4930819;28;9009;-61
2022/08/07 09:07:41;;;;;;;;;;;;;;;28.20;40.35;94587.72;4927833;29;9082;-61
2022/08/07 09:10:26;;;;;;;;;;;;;;;28.20;40.82;94593.25;4928819;28;8648;-60
2022/08/07 09:13:28;;;;;;;;;;;;;;;28.20;40.92;94598.78;4925333;28;6868;-63
2022/08/07 09:16:06;;;;;;;;;;;;;;;28.19;40.49;94597.28;4910328;29;6857;-61
2022/08/07 09:19:01;;;;;;;;;;;;;;;28.20;40.69;94587.72;4909385;29;8794;-61
2022/08/07 09:21:30;;;;;;;;;;;;;;;28.20;40.76;94593.25;4941272;28;6928;-61
2022/08/07 09:24:34;;;;;;;;;;;;;;;28.21;40.50;94589.19;4971773;28;7371;-61
2022/08/07 09:27:12;;;;;;;;;;;;;;;28.22;40.70;94599.00;4988305;28;7230;-62
2022/08/07 09:29:48;;;;;;;;;;;;;;;28.22;40.64;94605.28;5010059;28;9160;-63
2022/08/07 09:32:54;;;;;;;;;;;;;;;28.21;40.70;94606.56;5064444;28;7146;-63
2022/08/07 09:35:46;;;;;;;;;;;;;;;28.23;40.40;94608.81;5065154;28;7184;-62
2022/08/07 09:38:18;;;;;;;;;;;;;;;28.26;40.25;94613.28;5046180;28;7191;-62
2022/08/07 09:41:19;;;;;;;;;;;;;;;28.27;40.40;94600.97;5045156;28;7057;-62
2022/08/07 09:44:27;;;;;;;;;;;;;;;28.27;40.35;94604.44;5046753;28;7241;-63
2022/08/07 09:47:45;;;;;;;;;;;;;;;28.28;40.38;94602.44;5065195;28;7066;-62
2022/08/07 09:50:35;;;;;;;;;;;;;;;28.26;40.53;94602.97;4978909;28;7333;-63
2022/08/07 09:53:07;;;;;;;;;;;;;;;28.27;40.29;94609.25;4981771;28;7116;-63
2022/08/07 09:56:08;;;;;;;;;;;;;;;28.25;40.75;94603.50;4972334;28;7210;-63
2022/08/07 09:59:01;;;;;;;;;;;;;;;28.23;40.70;94598.47;4930690;28;8914;-64
2022/08/07 10:01:57;;;;;;;;;;;;;;;28.25;40.73;94598.69;4931096;28;7333;-63
2022/08/07 10:05:02;;;;;;;;;;;;;;;28.24;40.58;94602.75;4947483;28;7170;-63
2022/08/07 10:08:07;;;;;;;;;;;;;;;28.23;40.63;94600.53;4941694;28;7553;-63
2022/08/07 10:10:39;;;;;;;;;;;;;;;28.22;40.71;94601.78;4929187;28;9090;-63
2022/08/07 10:13:40;;;;;;;;;;;;;;;28.23;40.15;94598.47;4922601;28;7099;-63
2022/08/07 10:16:12;;;;;;;;;;;;;;;28.23;40.84;94597.75;4862889;29;9164;-63
2022/08/07 10:19:18;;;;;;;;;;;;;;;28.22;40.94;94601.78;4846546;29;7223;-62
2022/08/07 10:21:44;;;;;;;;;;;;;;;28.22;41.26;94601.78;4824949;29;7082;-62
2022/08/07 10:24:53;;;;;;;;;;;;;;;28.21;41.51;94601.03;4829174;29;8275;-62
2022/08/07 10:28:08;;;;;;;;;;;;;;;28.22;42.12;94604.53;4837643;29;9159;-63
2022/08/07 10:31:00;;;;;;;;;;;;;;;28.24;42.53;94604.75;4839444;29;7471;-63
2022/08/07 10:33:55;;;;;;;;;;;;;;;28.21;42.42;94603.03;4897142;29;7352;-62
2022/08/07 10:37:05;;;;;;;;;;;;;;;28.22;42.83;94604.53;4897048;29;6993;-62
2022/08/07 10:39:53;;;;;;;;;;;;;;;28.22;43.34;94608.06;4911507;29;7232;-62
2022/08/07 10:42:39;;;;;;;;;;;;;;;28.22;43.58;94605.28;4911562;29;7248;-62
2022/08/07 10:45:37;;;;;;;;;;;;;;;28.18;43.17;94606.88;4910772;29;7295;-62
2022/08/07 10:48:40;;;;;;;;;;;;;;;28.19;42.98;94606.34;4910358;29;7383;-62
2022/08/07 10:54:40;;;;;;;;;;;;;;;28.23;42.36;94609.53;4987365;28;6997;-62
2022/08/07 11:00:56;;;;;;;;;;;;;;;28.22;42.11;94601.78;5068807;28;9692;-62
2022/08/07 11:03:40;;;;;;;;;;;;;;;28.22;42.31;94607.31;4958437;28;7198;-63
2022/08/07 11:06:12;;;;;;;;;;;;;;;28.22;42.34;94604.53;4961781;28;7225;-63
2022/08/07 11:08:47;;;;;;;;;;;;;;;28.22;42.56;94607.31;4945004;28;9143;-64
2022/08/07 11:11:29;;;;;;;;;;;;;;;28.22;42.11;94608.06;4954076;28;7864;-63
2022/08/07 11:14:12;;;;;;;;;;;;;;;28.21;41.57;94608.56;4954879;28;7144;-64
2022/08/07 11:16:47;;;;;;;;;;;;;;;28.24;41.40;94602.00;4956878;28;9119;-63
2022/08/07 11:19:44;;;;;;;;;;;;;;;28.22;42.35;94594.22;4956868;28;7224;-63
2022/08/07 11:22:22;;;;;;;;;;;;;;;28.23;41.93;94600.53;4942765;28;7213;-63
2022/08/07 11:25:09;;;;;;;;;;;;;;;28.23;42.20;94597.75;4958393;28;8784;-62
2022/08/07 11:27:43;;;;;;;;;;;;;;;28.23;42.25;94597.75;4956271;28;7270;-62
2022/08/07 11:30:24;;;;;;;;;;;;;;;28.26;41.91;94588.38;4957987;28;7222;-62
2022/08/07 11:32:55;;;;;;;;;;;;;;;28.27;41.52;94593.38;4957806;28;7315;-62
2022/08/07 11:35:29;;;;;;;;;;;;;;;28.26;42.01;94591.16;4943677;28;7269;-61
2022/08/07 11:38:08;;;;;;;;;;;;;;;28.26;41.78;94594.69;4939641;28;7214;-62
2022/08/07 11:41:13;;;;;;;;;;;;;;;28.25;41.78;94587.63;5033646;28;7684;-61
2022/08/07 11:44:22;;;;;;;;;;;;;;;28.26;41.64;94591.16;4946866;28;7323;-61
2022/08/07 11:47:20;;;;;;;;;;;;;;;28.28;42.05;94583.06;4962907;28;7212;-62
2022/08/07 11:50:07;;;;;;;;;;;;;;;28.30;41.76;94586.06;4938992;28;9020;-62
2022/08/07 11:52:59;;;;;;;;;;;;;;;28.28;42.22;94583.84;4947601;28;7257;-62
2022/08/07 11:55:43;;;;;;;;;;;;;;;28.28;42.43;94580.31;4949933;28;8748;-62
2022/08/07 11:58:27;;;;;;;;;;;;;;;28.29;41.81;94581.81;4964760;28;7374;-62
2022/08/07 12:01:00;;;;;;;;;;;;;;;28.29;42.04;94579.81;4950050;28;7335;-62
2022/08/07 12:04:03;;;;;;;;;;;;;;;28.30;42.13;94580.53;4946952;28;7092;-62
2022/08/07 12:06:29;;;;;;;;;;;;;;;28.29;41.76;94573.53;4947661;28;9142;-62
2022/08/07 12:09:17;;;;;;;;;;;;;;;28.31;41.89;94576.50;4949498;28;8762;-62
2022/08/07 12:11:56;;;;;;;;;;;;;;;28.30;42.17;94575.00;4962250;28;7269;-62
2022/08/07 12:14:29;;;;;;;;;;;;;;;28.31;41.93;94570.97;4948903;28;9078;-62
2022/08/07 12:17:07;;;;;;;;;;;;;;;28.29;41.92;94573.53;4964864;28;8804;-62
2022/08/07 12:19:44;;;;;;;;;;;;;;;28.29;41.92;94565.22;4972223;28;7108;-62
2022/08/07 12:22:39;;;;;;;;;;;;;;;28.31;42.15;94559.91;5019024;28;7543;-62
2022/08/07 12:25:53;;;;;;;;;;;;;;;28.31;42.18;94565.44;5065859;28;9237;-63
2022/08/07 12:28:56;;;;;;;;;;;;;;;28.31;42.12;94570.97;4959579;28;9050;-62
2022/08/07 12:32:12;;;;;;;;;;;;;;;28.31;42.05;94563.44;4964890;28;7337;-62
2022/08/07 12:34:40;;;;;;;;;;;;;;;28.32;41.81;94561.38;4920781;29;7688;-62
2022/08/07 12:37:12;;;;;;;;;;;;;;;28.30;42.31;94558.41;4902124;29;7228;-62
2022/08/07 12:39:43;;;;;;;;;;;;;;;28.30;42.55;94558.41;4905097;29;7031;-62
2022/08/07 12:42:19;;;;;;;;;;;;;;;28.31;42.65;94563.44;4921221;29;7183;-62
2022/08/07 12:45:06;;;;;;;;;;;;;;;28.30;42.76;94556.38;4902525;29;9091;-62
2022/08/07 12:48:11;;;;;;;;;;;;;;;28.32;42.50;94556.63;4908181;29;7415;-61
2022/08/07 12:51:18;;;;;;;;;;;;;;;28.30;42.83;94566.69;4922118;29;7037;-62
2022/08/07 12:54:18;;;;;;;;;;;;;;;28.29;42.68;94565.97;4893023;29;7216;-61
2022/08/07 12:56:50;;;;;;;;;;;;;;;28.31;42.51;94570.97;4899063;29;9129;-61
2022/08/07 12:59:24;;;;;;;;;;;;;;;28.30;42.52;94563.94;4888879;29;7405;-62
2022/08/07 13:02:11;;;;;;;;;;;;;;;28.32;42.66;94566.91;4896442;29;7207;-61
2022/08/07 13:05:04;;;;;;;;;;;;;;;28.34;42.26;94558.84;4910621;29;7359;-61
2022/08/07 13:08:13;;;;;;;;;;;;;;;28.34;42.13;94553.31;4910887;29;7216;-61
2022/08/07 13:11:10;;;;;;;;;;;;;;;28.34;42.33;94553.31;4878405;29;6988;-61
2022/08/07 13:13:55;;;;;;;;;;;;;;;28.33;42.39;94546.31;4888139;29;7238;-61
2022/08/07 13:16:35;;;;;;;;;;;;;;;28.33;42.08;94547.06;4887705;29;7257;-61
2022/08/07 13:19:16;;;;;;;;;;;;;;;28.33;41.99;94549.81;4887961;29;6991;-61
2022/08/07 13:22:06;;;;;;;;;;;;;;;28.33;41.59;94541.53;4871563;29;7209;-61
2022/08/07 13:24:43;;;;;;;;;;;;;;;28.35;42.12;94543.75;4889024;29;7451;-61
2022/08/07 13:27:43;;;;;;;;;;;;;;;28.37;41.89;94546.75;4920135;28;7127;-61
2022/08/07 13:30:12;;;;;;;;;;;;;;;28.39;42.10;94541.44;4969550;28;8756;-61
2022/08/07 13:33:04;;;;;;;;;;;;;;;28.40;41.51;94553.25;4974218;28;9041;-61
2022/08/07 13:35:41;;;;;;;;;;;;;;;28.34;42.05;94554.06;4986808;28;7255;-61
2022/08/07 13:38:15;;;;;;;;;;;;;;;28.32;42.42;94551.06;4971637;28;7818;-61
2022/08/07 13:41:05;;;;;;;;;;;;;;;28.27;42.66;94551.16;4972810;28;7203;-60
2022/08/07 13:43:41;;;;;;;;;;;;;;;28.25;43.32;94554.44;4990232;28;7265;-61
2022/08/07 13:46:13;;;;;;;;;;;;;;;28.25;42.76;94551.69;4970778;28;7201;-61
2022/08/07 13:49:10;;;;;;;;;;;;;;;28.26;42.79;94552.44;5059322;28;9141;-61
2022/08/07 13:51:38;;;;;;;;;;;;;;;28.26;43.02;94546.91;4968317;28;7064;-61
2022/08/07 13:54:29;;;;;;;;;;;;;;;28.25;42.70;94539.88;4973804;28;7019;-61
2022/08/07 13:57:16;;;;;;;;;;;;;;;28.25;42.72;94539.88;4990617;28;8216;-62
2022/08/07 14:00:00;;;;;;;;;;;;;;;28.24;42.86;94533.59;4989958;28;7324;-61
2022/08/07 14:02:33;;;;;;;;;;;;;;;28.24;43.02;94530.84;4989145;28;7248;-62
2022/08/07 14:05:10;;;;;;;;;;;;;;;28.28;42.98;94541.59;4989948;28;7166;-62
2022/08/07 14:07:53;;;;;;;;;;;;;;;28.26;42.82;94544.88;4974506;28;7231;-62
2022/08/07 14:10:50;;;;;;;;;;;;;;;28.26;42.85;94547.66;4971408;28;6930;-62
2022/08/07 14:13:38;;;;;;;;;;;;;;;28.26;42.04;94546.91;4933799;28;7153;-61